Time;durP1;ratioP1;P1;durP2;ratioP2;P2;SDS_P1;SDS_P2;PMS_P1;PMS_P2;Temp;Humidity;BMP_temperature;BMP_pressure;BME280_temperature;BME280_humidity;BME280_pressure;Samples;Min_cycle;Max_cycle;Signal;HPM_P1;HPM_P2
2022/01/07 00:00:26;;;;;;;;;;;;;;;;;;5068457;28;19916;-64
2022/01/07 00:02:51;;;;;;;;;;;;;;;;;;5069076;28;19912;-62
2022/01/07 00:05:16;;;;;;;;;;;;;;;;;;5067833;28;19912;-62
2022/01/07 00:07:41;;;;;;;;;;;;;;;;;;5067238;28;20270;-62
2022/01/07 00:10:06;;;;;;;;;;;;;;;;;;5067948;28;19944;-63
2022/01/07 00:12:31;;;;;;;;;;;;;;;;;;5068732;28;19947;-63
2022/01/07 00:14:56;;;;;;;;;;;;;;;;;;5069070;28;19978;-62
2022/01/07 00:17:21;;;;;;;;;;;;;;;;;;5068256;28;19920;-62
2022/01/07 00:19:46;;;;;;;;;;;;;;;;;;5068731;28;19919;-64
2022/01/07 00:22:12;;;;;;;;;;;;;;;;;;5068164;28;19912;-64
2022/01/07 00:24:37;;;;;;;;;;;;;;;;;;5074133;28;19931;-63
2022/01/07 00:27:02;;;;;;;;;;;;;;;;;;5093086;28;19916;-64
2022/01/07 00:29:27;;;;;;;;;;;;;;;;;;5092625;28;20280;-64
2022/01/07 00:31:52;;;;;;;;;;;;;;;;;;5092806;28;20325;-64
2022/01/07 00:34:17;;;;;;;;;;;;;;;;;;5092204;28;20361;-63
2022/01/07 00:36:42;;;;;;;;;;;;;;;;;;5087245;28;19919;-63
2022/01/07 00:39:07;;;;;;;;;;;;;;;;;;5091008;28;19908;-64
2022/01/07 00:41:33;;;;;;;;;;;;;;;;;;5091594;28;19912;-63
2022/01/07 00:43:58;;;;;;;;;;;;;;;;;;5092890;28;19947;-63
2022/01/07 00:46:23;;;;;;;;;;;;;;;;;;5092082;28;19911;-63
2022/01/07 00:48:48;;;;;;;;;;;;;;;;;;5074205;28;19966;-63
2022/01/07 00:51:13;;;;;;;;;;;;;;;;;;5092141;28;19923;-63
2022/01/07 00:53:38;;;;;;;;;;;;;;;;;;5089457;28;19916;-63
2022/01/07 00:56:03;;;;;;;;;;;;;;;;;;5091845;28;20300;-64
2022/01/07 00:58:28;;;;;;;;;;;;;;;;;;5092269;28;19908;-64
2022/01/07 01:00:54;;;;;;;;;;;;;;;;;;5090133;28;19908;-63
2022/01/07 01:03:19;;;;;;;;;;;;;;;;;;5091906;28;20349;-63
2022/01/07 01:05:45;;;;;;;;;;;;;;;;;;5090229;28;19941;-64
2022/01/07 01:08:11;;;;;;;;;;;;;;;;;;5091134;28;19911;-64
2022/01/07 01:10:36;;;;;;;;;;;;;;;;;;5091407;28;19926;-63
2022/01/07 01:13:01;;;;;;;;;;;;;;;;;;5092185;28;20030;-64
2022/01/07 01:15:26;;;;;;;;;;;;;;;;;;5091818;28;19912;-64
2022/01/07 01:17:51;;;;;;;;;;;;;;;;;;5093513;28;19995;-63
2022/01/07 01:20:16;;;;;;;;;;;;;;;;;;5092465;28;19912;-63
2022/01/07 01:22:41;;;;;;;;;;;;;;;;;;5092096;28;19916;-63
2022/01/07 01:25:06;;;;;;;;;;;;;;;;;;5091248;28;19920;-64
2022/01/07 01:27:31;;;;;;;;;;;;;;;;;;5091923;28;19973;-63
2022/01/07 01:29:57;;;;;;;;;;;;;;;;;;5091764;28;19915;-64
2022/01/07 01:32:22;;;;;;;;;;;;;;;;;;5091428;28;19919;-63
2022/01/07 01:34:47;;;;;;;;;;;;;;;;;;5089430;28;20583;-63
2022/01/07 01:37:12;;;;;;;;;;;;;;;;;;5091092;28;19916;-64
2022/01/07 01:39:37;;;;;;;;;;;;;;;;;;5091711;28;20004;-63
2022/01/07 01:42:02;;;;;;;;;;;;;;;;;;5091854;28;20003;-64
2022/01/07 01:44:27;;;;;;;;;;;;;;;;;;5090980;28;20011;-64
2022/01/07 01:46:52;;;;;;;;;;;;;;;;;;5091688;28;20743;-64
2022/01/07 01:49:18;;;;;;;;;;;;;;;;;;5091191;28;20057;-63
2022/01/07 01:51:43;;;;;;;;;;;;;;;;;;5091586;28;20319;-63
2022/01/07 01:54:08;;;;;;;;;;;;;;;;;;5091229;28;20261;-63
2022/01/07 01:56:33;;;;;;;;;;;;;;;;;;5091097;28;20296;-63
2022/01/07 01:58:58;;;;;;;;;;;;;;;;;;5091351;28;20360;-63
2022/01/07 02:01:23;;;;;;;;;;;;;;;;;;5090814;28;19915;-63
2022/01/07 02:03:48;;;;;;;;;;;;;;;;;;5089908;28;19958;-63
2022/01/07 02:06:13;;;;;;;;;;;;;;;;;;5090418;28;19915;-63
2022/01/07 02:08:39;;;;;;;;;;;;;;;;;;5091139;28;19911;-63
2022/01/07 02:11:04;;;;;;;;;;;;;;;;;;5091137;28;19912;-63
2022/01/07 02:13:29;;;;;;;;;;;;;;;;;;5090268;28;19919;-63
2022/01/07 02:15:54;;;;;;;;;;;;;;;;;;5091162;28;20009;-63
2022/01/07 02:18:20;;;;;;;;;;;;;;;;;;5090551;28;19998;-63
2022/01/07 02:20:45;;;;;;;;;;;;;;;;;;5091029;28;19911;-63
2022/01/07 02:23:10;;;;;;;;;;;;;;;;;;5090530;28;19977;-63
2022/01/07 02:25:35;;;;;;;;;;;;;;;;;;5090410;28;19920;-64
2022/01/07 02:28:00;;;;;;;;;;;;;;;;;;5090780;28;19920;-64
2022/01/07 02:30:25;;;;;;;;;;;;;;;;;;5090293;28;19953;-64
2022/01/07 02:32:50;;;;;;;;;;;;;;;;;;5089216;28;19994;-64
2022/01/07 02:35:16;;;;;;;;;;;;;;;;;;5089790;28;20338;-63
2022/01/07 02:37:41;;;;;;;;;;;;;;;;;;5090900;28;19915;-63
2022/01/07 02:40:06;;;;;;;;;;;;;;;;;;5090195;28;19912;-64
2022/01/07 02:42:31;;;;;;;;;;;;;;;;;;5090004;28;20368;-63
2022/01/07 02:44:56;;;;;;;;;;;;;;;;;;5090469;28;19991;-64
2022/01/07 02:47:21;;;;;;;;;;;;;;;;;;5089543;28;19955;-64
2022/01/07 02:49:46;;;;;;;;;;;;;;;;;;5090130;28;19934;-64
2022/01/07 02:52:11;;;;;;;;;;;;;;;;;;5089974;28;19912;-64
2022/01/07 02:54:36;;;;;;;;;;;;;;;;;;5090581;28;19912;-64
2022/01/07 02:57:02;;;;;;;;;;;;;;;;;;5090082;28;19916;-64
2022/01/07 02:59:27;;;;;;;;;;;;;;;;;;5089705;28;19912;-63
2022/01/07 03:01:52;;;;;;;;;;;;;;;;;;5088650;28;19915;-63
2022/01/07 03:04:17;;;;;;;;;;;;;;;;;;5089617;28;19915;-63
2022/01/07 03:06:42;;;;;;;;;;;;;;;;;;5089871;28;20364;-63
2022/01/07 03:09:07;;;;;;;;;;;;;;;;;;5089974;28;19911;-63
2022/01/07 03:11:33;;;;;;;;;;;;;;;;;;5089225;28;19915;-63
2022/01/07 03:13:58;;;;;;;;;;;;;;;;;;5090047;28;19908;-63
2022/01/07 03:16:23;;;;;;;;;;;;;;;;;;5072637;28;19908;-63
2022/01/07 03:18:48;;;;;;;;;;;;;;;;;;5089939;28;19912;-63
2022/01/07 03:21:14;;;;;;;;;;;;;;;;;;5089119;28;19995;-64
2022/01/07 03:23:40;;;;;;;;;;;;;;;;;;5089424;28;19966;-63
2022/01/07 03:26:05;;;;;;;;;;;;;;;;;;5089326;28;19916;-63
2022/01/07 03:28:31;;;;;;;;;;;;;;;;;;5089164;28;19919;-63
2022/01/07 03:30:56;;;;;;;;;;;;;;;;;;5088445;28;20276;-63
2022/01/07 03:33:21;;;;;;;;;;;;;;;;;;5088758;28;19914;-64
2022/01/07 03:35:46;;;;;;;;;;;;;;;;;;5089539;28;19930;-63
2022/01/07 03:38:11;;;;;;;;;;;;;;;;;;5088946;28;19912;-64
2022/01/07 03:40:36;;;;;;;;;;;;;;;;;;5088604;28;19935;-63
2022/01/07 03:43:01;;;;;;;;;;;;;;;;;;5089274;28;19919;-64
2022/01/07 03:45:27;;;;;;;;;;;;;;;;;;5089018;28;20357;-64
2022/01/07 03:47:52;;;;;;;;;;;;;;;;;;5089269;28;19922;-64
2022/01/07 03:50:17;;;;;;;;;;;;;;;;;;5088722;28;19915;-64
2022/01/07 03:52:42;;;;;;;;;;;;;;;;;;5089221;28;19961;-64
2022/01/07 03:55:07;;;;;;;;;;;;;;;;;;5088833;28;19983;-64
2022/01/07 03:57:32;;;;;;;;;;;;;;;;;;5087570;28;20124;-64
2022/01/07 03:59:57;;;;;;;;;;;;;;;;;;5087040;28;20361;-64
2022/01/07 04:02:22;;;;;;;;;;;;;;;;;;5088541;28;19995;-64
2022/01/07 04:04:47;;;;;;;;;;;;;;;;;;5089463;28;19981;-64
2022/01/07 04:07:12;;;;;;;;;;;;;;;;;;5088596;28;20017;-64
2022/01/07 04:09:38;;;;;;;;;;;;;;;;;;5088803;28;20003;-64
2022/01/07 04:12:03;;;;;;;;;;;;;;;;;;5088715;28;19996;-64
2022/01/07 04:14:28;;;;;;;;;;;;;;;;;;5088644;28;19908;-64
2022/01/07 04:16:54;;;;;;;;;;;;;;;;;;5089109;28;19919;-64
2022/01/07 04:19:19;;;;;;;;;;;;;;;;;;5088518;28;20394;-63
2022/01/07 04:21:44;;;;;;;;;;;;;;;;;;5089069;28;19948;-64
2022/01/07 04:24:09;;;;;;;;;;;;;;;;;;5089163;28;19916;-64
2022/01/07 04:26:34;;;;;;;;;;;;;;;;;;5087855;28;20671;-64
2022/01/07 04:28:59;;;;;;;;;;;;;;;;;;5086831;28;19919;-64
2022/01/07 04:31:24;;;;;;;;;;;;;;;;;;5088449;28;19912;-63
2022/01/07 04:33:49;;;;;;;;;;;;;;;;;;5088874;28;20420;-63
2022/01/07 04:36:14;;;;;;;;;;;;;;;;;;5088234;28;19957;-63
2022/01/07 04:38:40;;;;;;;;;;;;;;;;;;5070473;28;19916;-63
2022/01/07 04:41:05;;;;;;;;;;;;;;;;;;5088130;28;19937;-63
2022/01/07 04:43:30;;;;;;;;;;;;;;;;;;5088234;28;20289;-64
2022/01/07 04:45:55;;;;;;;;;;;;;;;;;;5088583;28;19912;-63
2022/01/07 04:48:20;;;;;;;;;;;;;;;;;;5088111;28;19920;-64
2022/01/07 04:50:45;;;;;;;;;;;;;;;;;;5088560;28;20262;-63
2022/01/07 04:53:10;;;;;;;;;;;;;;;;;;5088507;28;19908;-64
2022/01/07 04:55:37;;;;;;;;;;;;;;;;;;5086534;28;19912;-64
2022/01/07 04:58:02;;;;;;;;;;;;;;;;;;5087918;28;19940;-63
2022/01/07 05:00:27;;;;;;;;;;;;;;;;;;5087945;28;19962;-63
2022/01/07 05:02:52;;;;;;;;;;;;;;;;;;5088525;28;20010;-63
2022/01/07 05:05:18;;;;;;;;;;;;;;;;;;5087898;28;19908;-63
2022/01/07 05:07:43;;;;;;;;;;;;;;;;;;5091392;28;20357;-63
2022/01/07 05:10:08;;;;;;;;;;;;;;;;;;5088896;28;19908;-64
2022/01/07 05:12:33;;;;;;;;;;;;;;;;;;5091793;28;20340;-64
2022/01/07 05:14:58;;;;;;;;;;;;;;;;;;5092299;28;19946;-64
2022/01/07 05:17:23;;;;;;;;;;;;;;;;;;5091805;28;19908;-64
2022/01/07 05:19:48;;;;;;;;;;;;;;;;;;5092106;28;19908;-63
2022/01/07 05:22:13;;;;;;;;;;;;;;;;;;5091935;28;19915;-64
2022/01/07 05:24:39;;;;;;;;;;;;;;;;;;5089694;28;19916;-63
2022/01/07 05:27:04;;;;;;;;;;;;;;;;;;5091782;28;19934;-64
2022/01/07 05:29:33;;;;;;;;;;;;;;;;;;5091418;28;19916;-63
2022/01/07 05:31:58;;;;;;;;;;;;;;;;;;5091625;28;19977;-64
2022/01/07 05:34:23;;;;;;;;;;;;;;;;;;5091403;28;20303;-64
2022/01/07 05:36:48;;;;;;;;;;;;;;;;;;5091792;28;20372;-64
2022/01/07 05:39:13;;;;;;;;;;;;;;;;;;5091508;28;19908;-64
2022/01/07 05:41:38;;;;;;;;;;;;;;;;;;5090776;28;19915;-63
2022/01/07 05:44:03;;;;;;;;;;;;;;;;;;5091752;28;19912;-64
2022/01/07 05:46:28;;;;;;;;;;;;;;;;;;5091112;28;20318;-64
2022/01/07 05:48:54;;;;;;;;;;;;;;;;;;5091258;28;19999;-63
2022/01/07 05:51:19;;;;;;;;;;;;;;;;;;5090816;28;19908;-64
2022/01/07 05:53:44;;;;;;;;;;;;;;;;;;5089929;28;19908;-63
2022/01/07 05:56:09;;;;;;;;;;;;;;;;;;5091170;28;19984;-64
2022/01/07 05:58:34;;;;;;;;;;;;;;;;;;5090741;28;19908;-64
2022/01/07 06:00:59;;;;;;;;;;;;;;;;;;5091135;28;19923;-64
2022/01/07 06:03:25;;;;;;;;;;;;;;;;;;5090146;28;19914;-64
2022/01/07 06:05:50;;;;;;;;;;;;;;;;;;5091452;28;19982;-63
2022/01/07 06:08:15;;;;;;;;;;;;;;;;;;5090810;28;20583;-63
2022/01/07 06:10:40;;;;;;;;;;;;;;;;;;5090465;28;19955;-63
2022/01/07 06:13:05;;;;;;;;;;;;;;;;;;5091044;28;19985;-63
2022/01/07 06:15:30;;;;;;;;;;;;;;;;;;5090453;28;19954;-64
2022/01/07 06:17:55;;;;;;;;;;;;;;;;;;5090647;28;20002;-64
2022/01/07 06:20:21;;;;;;;;;;;;;;;;;;5089768;28;19919;-64
2022/01/07 06:22:46;;;;;;;;;;;;;;;;;;5088348;28;19912;-64
2022/01/07 06:25:11;;;;;;;;;;;;;;;;;;5090467;28;19915;-64
2022/01/07 06:27:38;;;;;;;;;;;;;;;;;;5089598;28;19915;-64
2022/01/07 06:30:03;;;;;;;;;;;;;;;;;;5090730;28;19912;-64
2022/01/07 06:32:28;;;;;;;;;;;;;;;;;;5090436;28;19929;-64
2022/01/07 06:34:53;;;;;;;;;;;;;;;;;;5090221;28;19912;-64
2022/01/07 06:37:18;;;;;;;;;;;;;;;;;;5090185;28;19908;-64
2022/01/07 06:39:43;;;;;;;;;;;;;;;;;;5090390;28;20002;-63
2022/01/07 06:42:08;;;;;;;;;;;;;;;;;;5089946;28;20007;-64
2022/01/07 06:44:33;;;;;;;;;;;;;;;;;;5089442;28;19907;-64
2022/01/07 06:46:59;;;;;;;;;;;;;;;;;;5090014;28;20298;-64
2022/01/07 06:49:24;;;;;;;;;;;;;;;;;;5089836;28;19954;-64
2022/01/07 06:51:50;;;;;;;;;;;;;;;;;;5087961;28;19922;-63
2022/01/07 06:54:15;;;;;;;;;;;;;;;;;;5089789;28;19915;-64
2022/01/07 06:56:40;;;;;;;;;;;;;;;;;;5089290;28;19915;-64
2022/01/07 06:59:05;;;;;;;;;;;;;;;;;;5090251;28;20292;-64
2022/01/07 07:01:31;;;;;;;;;;;;;;;;;;5089683;28;19912;-64
2022/01/07 07:03:56;;;;;;;;;;;;;;;;;;5089765;28;20023;-64
2022/01/07 07:06:21;;;;;;;;;;;;;;;;;;5089624;28;20056;-64
2022/01/07 07:08:46;;;;;;;;;;;;;;;;;;5090017;28;20418;-64
2022/01/07 07:11:11;;;;;;;;;;;;;;;;;;5090044;28;20394;-64
2022/01/07 07:13:36;;;;;;;;;;;;;;;;;;5092108;28;20038;-64
2022/01/07 07:16:01;;;;;;;;;;;;;;;;;;5089571;28;19918;-64
2022/01/07 07:18:26;;;;;;;;;;;;;;;;;;5088930;28;19919;-64
2022/01/07 07:20:51;;;;;;;;;;;;;;;;;;5087651;28;20276;-64
2022/01/07 07:23:17;;;;;;;;;;;;;;;;;;5089178;28;19908;-63
2022/01/07 07:25:42;;;;;;;;;;;;;;;;;;5088442;28;19924;-64
2022/01/07 07:28:07;;;;;;;;;;;;;;;;;;5089110;28;19916;-63
2022/01/07 07:30:39;;;;;;;;;;;;;;;;;;5089030;28;19919;-63
2022/01/07 07:33:30;;;;;;;;;;;;;;;;;;5088198;28;19908;-63
2022/01/07 07:38:36;;;;;;;;;;;;;;;;;;5088485;28;19947;-63
2022/01/07 07:41:01;;;;;;;;;;;;;;;;;;5089180;28;20372;-64
2022/01/07 07:43:26;;;;;;;;;;;;;;;;;;5088452;28;19918;-64
2022/01/07 07:45:51;;;;;;;;;;;;;;;;;;5089038;28;19915;-64
2022/01/07 07:48:16;;;;;;;;;;;;;;;;;;5088669;28;19963;-64
2022/01/07 07:50:41;;;;;;;;;;;;;;;;;;5086127;28;19998;-65
2022/01/07 07:53:06;;;;;;;;;;;;;;;;;;5070749;28;20019;-65
2022/01/07 07:55:31;;;;;;;;;;;;;;;;;;5088353;28;19923;-65
2022/01/07 07:57:56;;;;;;;;;;;;;;;;;;5088642;28;19919;-67
2022/01/07 08:00:22;;;;;;;;;;;;;;;;;;5088211;28;19919;-67
2022/01/07 08:02:47;;;;;;;;;;;;;;;;;;5088393;28;20372;-68
2022/01/07 08:05:12;;;;;;;;;;;;;;;;;;5088573;28;19912;-68
2022/01/07 08:07:37;;;;;;;;;;;;;;;;;;5087982;28;20345;-68
2022/01/07 08:10:03;;;;;;;;;;;;;;;;;;5088850;28;19908;-68
2022/01/07 08:12:50;;;;;;;;;;;;;;;;;;5088347;28;19914;-69
2022/01/07 08:17:57;;;;;;;;;;;;;;;;;;5085445;28;20016;-68
2022/01/07 08:20:22;;;;;;;;;;;;;;;;;;5088009;28;19955;-67
2022/01/07 08:22:47;;;;;;;;;;;;;;;;;;5088098;28;20331;-67
2022/01/07 08:25:12;;;;;;;;;;;;;;;;;;5087741;28;19916;-67
2022/01/07 08:27:37;;;;;;;;;;;;;;;;;;5087553;28;19912;-67
2022/01/07 08:30:11;;;;;;;;;;;;;;;;;;5087724;28;20345;-68
2022/01/07 08:35:19;;;;;;;;;;;;;;;;;;5087432;28;19956;-68
2022/01/07 08:37:45;;;;;;;;;;;;;;;;;;5087628;28;19912;-68
2022/01/07 08:40:11;;;;;;;;;;;;;;;;;;5088241;28;19912;-68
2022/01/07 08:42:36;;;;;;;;;;;;;;;;;;5087209;28;19919;-68
2022/01/07 08:45:01;;;;;;;;;;;;;;;;;;5071116;28;19916;-68
2022/01/07 08:47:26;;;;;;;;;;;;;;;;;;5089907;28;19916;-68
2022/01/07 08:49:51;;;;;;;;;;;;;;;;;;5091701;28;19912;-67
2022/01/07 08:52:17;;;;;;;;;;;;;;;;;;5092055;28;19934;-67
2022/01/07 08:54:42;;;;;;;;;;;;;;;;;;5091589;28;20003;-68
2022/01/07 08:57:07;;;;;;;;;;;;;;;;;;5091625;28;19916;-68
2022/01/07 08:59:32;;;;;;;;;;;;;;;;;;5091597;28;19908;-68
2022/01/07 09:01:57;;;;;;;;;;;;;;;;;;5091912;28;19954;-67
2022/01/07 09:04:23;;;;;;;;;;;;;;;;;;5091335;28;19998;-68
2022/01/07 09:06:48;;;;;;;;;;;;;;;;;;5091596;28;19915;-68
2022/01/07 09:09:13;;;;;;;;;;;;;;;;;;5091697;28;19966;-68
2022/01/07 09:11:38;;;;;;;;;;;;;;;;;;5090720;28;19908;-68
2022/01/07 09:14:03;;;;;;;;;;;;;;;;;;5091207;28;19908;-68
2022/01/07 09:16:28;;;;;;;;;;;;;;;;;;5072242;28;19908;-71
2022/01/07 09:18:53;;;;;;;;;;;;;;;;;;5091213;28;20244;-71
2022/01/07 09:21:18;;;;;;;;;;;;;;;;;;5091598;28;19918;-70
2022/01/07 09:23:44;;;;;;;;;;;;;;;;;;5090395;28;19938;-70
2022/01/07 09:26:09;;;;;;;;;;;;;;;;;;5090501;28;19920;-70
2022/01/07 09:28:34;;;;;;;;;;;;;;;;;;5089891;28;20380;-70
2022/01/07 09:30:59;;;;;;;;;;;;;;;;;;5090846;28;20650;-70
2022/01/07 09:33:24;;;;;;;;;;;;;;;;;;5090696;28;20453;-70
2022/01/07 09:35:51;;;;;;;;;;;;;;;;;;5090745;28;20007;-70
2022/01/07 09:38:16;;;;;;;;;;;;;;;;;;5091277;28;20368;-70
2022/01/07 09:40:41;;;;;;;;;;;;;;;;;;5089890;28;20372;-70
2022/01/07 09:43:06;;;;;;;;;;;;;;;;;;5090679;28;19919;-71
2022/01/07 09:45:31;;;;;;;;;;;;;;;;;;5088602;28;19911;-71
2022/01/07 09:47:57;;;;;;;;;;;;;;;;;;5090642;28;19923;-72
2022/01/07 09:50:22;;;;;;;;;;;;;;;;;;5090858;28;19995;-72
2022/01/07 09:52:47;;;;;;;;;;;;;;;;;;5089951;28;19908;-70
2022/01/07 09:55:12;;;;;;;;;;;;;;;;;;5090291;28;19912;-71
2022/01/07 09:57:37;;;;;;;;;;;;;;;;;;5089002;28;20012;-72
2022/01/07 10:00:03;;;;;;;;;;;;;;;;;;5090419;28;19908;-72
2022/01/07 10:02:28;;;;;;;;;;;;;;;;;;5090654;28;19965;-72
2022/01/07 10:04:53;;;;;;;;;;;;;;;;;;5089518;28;19914;-71
2022/01/07 10:07:20;;;;;;;;;;;;;;;;;;5089076;28;19916;-73
2022/01/07 10:09:45;;;;;;;;;;;;;;;;;;5088514;28;19916;-73
2022/01/07 10:12:10;;;;;;;;;;;;;;;;;;5070880;28;19969;-73
2022/01/07 10:14:36;;;;;;;;;;;;;;;;;;5085771;28;20386;-71
2022/01/07 10:17:01;;;;;;;;;;;;;;;;;;5088330;28;19923;-73
2022/01/07 10:19:26;;;;;;;;;;;;;;;;;;5088763;28;19912;-72
2022/01/07 10:21:51;;;;;;;;;;;;;;;;;;5089145;28;19942;-74
2022/01/07 10:24:16;;;;;;;;;;;;;;;;;;5089132;28;19912;-73
2022/01/07 10:26:42;;;;;;;;;;;;;;;;;;5069682;28;20369;-74
2022/01/07 10:29:07;;;;;;;;;;;;;;;;;;5088165;28;20325;-73
2022/01/07 10:31:33;;;;;;;;;;;;;;;;;;5088722;28;19911;-72
2022/01/07 10:33:58;;;;;;;;;;;;;;;;;;5089141;28;19916;-72
2022/01/07 10:36:24;;;;;;;;;;;;;;;;;;5088042;28;19914;-72
2022/01/07 10:38:49;;;;;;;;;;;;;;;;;;5088465;28;20020;-72
2022/01/07 10:41:14;;;;;;;;;;;;;;;;;;5087605;28;19908;-72
2022/01/07 10:43:39;;;;;;;;;;;;;;;;;;5088035;28;19922;-73
2022/01/07 10:46:04;;;;;;;;;;;;;;;;;;5088561;28;20325;-73
2022/01/07 10:48:30;;;;;;;;;;;;;;;;;;5088133;28;20364;-71
2022/01/07 10:50:55;;;;;;;;;;;;;;;;;;5088082;28;20372;-71
2022/01/07 10:53:20;;;;;;;;;;;;;;;;;;5069851;28;19915;-71
2022/01/07 10:55:45;;;;;;;;;;;;;;;;;;5088130;28;19951;-72
2022/01/07 10:58:10;;;;;;;;;;;;;;;;;;5088444;28;19916;-73
2022/01/07 11:00:35;;;;;;;;;;;;;;;;;;5088194;28;19916;-60
2022/01/07 11:03:01;;;;;;;;;;;;;;;;;;5085503;28;19927;-60
2022/01/07 11:05:26;;;;;;;;;;;;;;;;;;5085529;28;19915;-63
2022/01/07 11:07:51;;;;;;;;;;;;;;;;;;5087420;28;19918;-60
2022/01/07 11:10:16;;;;;;;;;;;;;;;;;;5085319;28;19912;-61
2022/01/07 11:12:41;;;;;;;;;;;;;;;;;;5085217;28;19920;-62
2022/01/07 11:15:08;;;;;;;;;;;;;;;;;;5090408;28;20380;-60
2022/01/07 11:17:34;;;;;;;;;;;;;;;;;;5088062;28;19955;-59
2022/01/07 11:20:02;;;;;;;;;;;;;;;;;;5088674;28;20378;-59
2022/01/07 11:22:27;;;;;;;;;;;;;;;;;;5087990;28;19908;-61
2022/01/07 11:24:54;;;;;;;;;;;;;;;;;;5088463;28;19922;-61
2022/01/07 11:27:23;;;;;;;;;;;;;;;;;;5083549;28;20259;-60
2022/01/07 11:29:48;;;;;;;;;;;;;;;;;;5067378;28;19924;-61
2022/01/07 11:32:13;;;;;;;;;;;;;;;;;;5067806;28;19909;-61
2022/01/07 11:34:38;;;;;;;;;;;;;;;;;;5067653;28;20393;-60
2022/01/07 11:37:03;;;;;;;;;;;;;;;;;;5070383;28;19960;-61
2022/01/07 11:39:28;;;;;;;;;;;;;;;;;;5079015;28;19959;-60
2022/01/07 11:41:55;;;;;;;;;;;;;;;;;;5071848;28;19918;-61
2022/01/07 11:44:20;;;;;;;;;;;;;;;;;;5082614;28;20338;-61
2022/01/07 11:46:45;;;;;;;;;;;;;;;;;;5069004;28;20439;-62
2022/01/07 11:49:10;;;;;;;;;;;;;;;;;;5072411;28;19916;-60
2022/01/07 11:51:36;;;;;;;;;;;;;;;;;;5067638;28;19909;-60
2022/01/07 11:54:03;;;;;;;;;;;;;;;;;;5066963;28;19912;-61
2022/01/07 11:56:28;;;;;;;;;;;;;;;;;;5066558;28;19912;-60
2022/01/07 11:58:55;;;;;;;;;;;;;;;;;;5071383;28;20500;-61
2022/01/07 12:01:20;;;;;;;;;;;;;;;;;;5069964;28;19923;-61
2022/01/07 12:03:46;;;;;;;;;;;;;;;;;;5071964;28;19912;-61
2022/01/07 12:06:11;;;;;;;;;;;;;;;;;;5067522;28;19916;-60
2022/01/07 12:08:36;;;;;;;;;;;;;;;;;;5065060;28;19912;-61
2022/01/07 12:11:01;;;;;;;;;;;;;;;;;;5067961;28;19908;-60
2022/01/07 12:13:27;;;;;;;;;;;;;;;;;;5067190;28;19912;-60
2022/01/07 12:15:52;;;;;;;;;;;;;;;;;;5077243;28;19912;-60
2022/01/07 12:18:17;;;;;;;;;;;;;;;;;;5073486;28;19963;-61
2022/01/07 12:20:43;;;;;;;;;;;;;;;;;;5073317;28;19908;-61
2022/01/07 12:23:08;;;;;;;;;;;;;;;;;;5075785;28;19916;-60
2022/01/07 12:25:33;;;;;;;;;;;;;;;;;;5089305;28;19916;-62
2022/01/07 12:27:59;;;;;;;;;;;;;;;;;;5076883;28;19916;-64
2022/01/07 12:30:24;;;;;;;;;;;;;;;;;;5071645;28;19916;-66
2022/01/07 12:32:49;;;;;;;;;;;;;;;;;;5076693;28;20749;-62
2022/01/07 12:35:14;;;;;;;;;;;;;;;;;;5084481;28;20332;-74
2022/01/07 12:37:40;;;;;;;;;;;;;;;;;;5077404;28;19947;-64
2022/01/07 12:40:06;;;;;;;;;;;;;;;;;;5079707;28;19957;-71
2022/01/07 12:42:31;;;;;;;;;;;;;;;;;;5079193;28;19912;-70
2022/01/07 12:44:57;;;;;;;;;;;;;;;;;;5073434;28;19961;-63
2022/01/07 12:47:23;;;;;;;;;;;;;;;;;;5076876;28;19912;-63
2022/01/07 12:49:48;;;;;;;;;;;;;;;;;;5052838;28;20021;-63
2022/01/07 12:52:13;;;;;;;;;;;;;;;;;;5079933;28;19916;-63
2022/01/07 12:54:38;;;;;;;;;;;;;;;;;;5076485;28;20418;-62
2022/01/07 12:57:03;;;;;;;;;;;;;;;;;;5071078;28;19912;-65
2022/01/07 12:59:29;;;;;;;;;;;;;;;;;;5086141;28;19930;-63
2022/01/07 13:01:54;;;;;;;;;;;;;;;;;;5085914;28;19962;-62
2022/01/07 13:04:21;;;;;;;;;;;;;;;;;;5075807;28;20007;-62
2022/01/07 13:06:46;;;;;;;;;;;;;;;;;;5076995;28;20379;-61
2022/01/07 13:09:11;;;;;;;;;;;;;;;;;;5075185;28;19912;-61
2022/01/07 13:11:36;;;;;;;;;;;;;;;;;;5072676;28;19912;-61
2022/01/07 13:14:02;;;;;;;;;;;;;;;;;;5080702;28;20514;-65
2022/01/07 13:16:28;;;;;;;;;;;;;;;;;;5091085;28;19908;-61
2022/01/07 13:18:53;;;;;;;;;;;;;;;;;;5067074;28;19916;-66
2022/01/07 13:21:18;;;;;;;;;;;;;;;;;;5082832;28;19914;-63
2022/01/07 13:23:44;;;;;;;;;;;;;;;;;;5068114;28;19918;-63
2022/01/07 13:26:09;;;;;;;;;;;;;;;;;;5084663;28;19916;-63
2022/01/07 13:28:34;;;;;;;;;;;;;;;;;;5085421;28;19930;-63
2022/01/07 13:30:59;;;;;;;;;;;;;;;;;;5088561;28;19947;-63
2022/01/07 13:33:24;;;;;;;;;;;;;;;;;;5090313;28;19912;-63
2022/01/07 13:35:49;;;;;;;;;;;;;;;;;;5087965;28;19908;-63
2022/01/07 13:38:14;;;;;;;;;;;;;;;;;;5090454;28;19908;-64
2022/01/07 13:40:39;;;;;;;;;;;;;;;;;;5089048;28;20304;-63
2022/01/07 13:43:05;;;;;;;;;;;;;;;;;;5090266;28;19912;-63
2022/01/07 13:45:30;;;;;;;;;;;;;;;;;;5088514;28;19998;-63
2022/01/07 13:47:55;;;;;;;;;;;;;;;;;;5089145;28;20078;-63
2022/01/07 13:50:27;;;;;;;;;;;;;;;;;;5089826;28;19968;-63
2022/01/07 13:52:53;;;;;;;;;;;;;;;;;;5087758;28;19912;-63
2022/01/07 13:55:18;;;;;;;;;;;;;;;;;;5088907;28;20397;-63
2022/01/07 13:57:43;;;;;;;;;;;;;;;;;;5089410;28;19908;-63
2022/01/07 14:00:08;;;;;;;;;;;;;;;;;;5089943;28;19915;-63
2022/01/07 14:02:33;;;;;;;;;;;;;;;;;;5088908;28;19916;-62
2022/01/07 14:04:58;;;;;;;;;;;;;;;;;;5087699;28;19943;-62
2022/01/07 14:07:24;;;;;;;;;;;;;;;;;;5089078;28;19947;-63
2022/01/07 14:09:49;;;;;;;;;;;;;;;;;;5087976;28;19920;-63
2022/01/07 14:12:14;;;;;;;;;;;;;;;;;;5087200;28;19997;-62
2022/01/07 14:14:40;;;;;;;;;;;;;;;;;;5089568;28;20053;-63
2022/01/07 14:17:05;;;;;;;;;;;;;;;;;;5089336;28;19916;-61
2022/01/07 14:19:30;;;;;;;;;;;;;;;;;;5089542;28;19916;-62
2022/01/07 14:21:55;;;;;;;;;;;;;;;;;;5089444;28;19918;-62
2022/01/07 14:24:20;;;;;;;;;;;;;;;;;;5087913;28;19977;-62
2022/01/07 14:26:45;;;;;;;;;;;;;;;;;;5088525;28;20326;-63
2022/01/07 14:29:10;;;;;;;;;;;;;;;;;;5088992;28;19924;-62
2022/01/07 14:31:35;;;;;;;;;;;;;;;;;;5088922;28;19916;-64
2022/01/07 14:34:01;;;;;;;;;;;;;;;;;;5087312;28;19912;-62
2022/01/07 14:36:26;;;;;;;;;;;;;;;;;;5090368;28;19947;-62
2022/01/07 14:38:54;;;;;;;;;;;;;;;;;;5089184;28;19914;-62
2022/01/07 14:41:20;;;;;;;;;;;;;;;;;;5089921;28;19954;-62
2022/01/07 14:43:46;;;;;;;;;;;;;;;;;;5089053;28;19912;-64
2022/01/07 14:46:13;;;;;;;;;;;;;;;;;;5089822;28;19912;-63
2022/01/07 14:48:39;;;;;;;;;;;;;;;;;;5070788;28;19912;-63
2022/01/07 14:51:05;;;;;;;;;;;;;;;;;;5089689;28;19991;-63
2022/01/07 14:53:30;;;;;;;;;;;;;;;;;;5089704;28;20014;-63
2022/01/07 14:55:55;;;;;;;;;;;;;;;;;;5089364;28;19995;-63
2022/01/07 14:58:20;;;;;;;;;;;;;;;;;;5089625;28;20015;-63
2022/01/07 15:00:45;;;;;;;;;;;;;;;;;;5087434;28;19958;-63
2022/01/07 15:03:10;;;;;;;;;;;;;;;;;;5104291;28;19934;-63
2022/01/07 15:05:35;;;;;;;;;;;;;;;;;;5089288;28;19911;-63
2022/01/07 15:08:01;;;;;;;;;;;;;;;;;;5088580;28;19920;-63
2022/01/07 15:10:26;;;;;;;;;;;;;;;;;;5088748;28;19937;-63
2022/01/07 15:12:51;;;;;;;;;;;;;;;;;;5088770;28;19912;-63
2022/01/07 15:18:00;;;;;;;;;;;;;;;;;;5088977;28;20412;-63
2022/01/07 15:20:25;;;;;;;;;;;;;;;;;;5088902;28;20389;-62
2022/01/07 15:22:50;;;;;;;;;;;;;;;;;;5088901;28;20445;-63
2022/01/07 15:25:15;;;;;;;;;;;;;;;;;;5088701;28;19966;-63
2022/01/07 15:27:40;;;;;;;;;;;;;;;;;;5088401;28;19915;-63
2022/01/07 15:30:06;;;;;;;;;;;;;;;;;;5087169;28;19928;-63
2022/01/07 15:32:31;;;;;;;;;;;;;;;;;;5089096;28;19916;-63
2022/01/07 15:34:56;;;;;;;;;;;;;;;;;;5088390;28;20249;-63
2022/01/07 15:37:22;;;;;;;;;;;;;;;;;;5088983;28;19946;-62
2022/01/07 15:39:48;;;;;;;;;;;;;;;;;;5087871;28;19916;-63
2022/01/07 15:42:13;;;;;;;;;;;;;;;;;;5089274;28;19961;-62
2022/01/07 15:44:38;;;;;;;;;;;;;;;;;;5088286;28;19918;-63
2022/01/07 15:47:03;;;;;;;;;;;;;;;;;;5089189;28;19908;-63
2022/01/07 15:49:28;;;;;;;;;;;;;;;;;;5088549;28;19912;-63
2022/01/07 15:51:53;;;;;;;;;;;;;;;;;;5088578;28;20335;-62
2022/01/07 15:54:18;;;;;;;;;;;;;;;;;;5089018;28;20246;-63
2022/01/07 15:56:43;;;;;;;;;;;;;;;;;;5087887;28;20383;-62
2022/01/07 15:59:09;;;;;;;;;;;;;;;;;;5086970;28;19938;-62
2022/01/07 16:01:34;;;;;;;;;;;;;;;;;;5088439;28;19908;-63
2022/01/07 16:03:59;;;;;;;;;;;;;;;;;;5087979;28;19908;-62
2022/01/07 16:06:24;;;;;;;;;;;;;;;;;;5088784;28;20045;-62
2022/01/07 16:08:49;;;;;;;;;;;;;;;;;;5087656;28;20064;-62
2022/01/07 16:11:14;;;;;;;;;;;;;;;;;;5088215;28;20384;-62
2022/01/07 16:13:39;;;;;;;;;;;;;;;;;;5087719;28;19996;-62
2022/01/07 16:16:05;;;;;;;;;;;;;;;;;;5088320;28;19912;-62
2022/01/07 16:18:30;;;;;;;;;;;;;;;;;;5088278;28;20002;-63
2022/01/07 16:20:56;;;;;;;;;;;;;;;;;;5088213;28;19919;-62
2022/01/07 16:23:21;;;;;;;;;;;;;;;;;;5087993;28;20011;-62
2022/01/07 16:25:46;;;;;;;;;;;;;;;;;;5087459;28;20303;-62
2022/01/07 16:28:11;;;;;;;;;;;;;;;;;;5087537;28;19912;-63
2022/01/07 16:30:36;;;;;;;;;;;;;;;;;;5088878;28;20249;-63
2022/01/07 16:33:02;;;;;;;;;;;;;;;;;;5087764;28;19908;-62
2022/01/07 16:35:27;;;;;;;;;;;;;;;;;;5088610;28;19919;-62
2022/01/07 16:37:52;;;;;;;;;;;;;;;;;;5088614;28;19912;-62
2022/01/07 16:40:17;;;;;;;;;;;;;;;;;;5088865;28;20031;-62
2022/01/07 16:42:43;;;;;;;;;;;;;;;;;;5087923;28;19915;-63